Bloomington, IN

8:19 AM EDT on May 22, 2015 (GMT -0400)
Gentry Estates | | Change Station
CLOSE
Current Station
Personal Weather Station
Location: Bloomington, IN
Elevation: 0 ft
Nearby Weather Stations

Elev 0 ft 39.15 °N, 86.47 °W | Updated 16 seconds ago

Clear
Clear
53.2 °F
Feels Like 53.2 °F
N
0.9
Wind Variable Wind from West
Gusts 2.5 mph

Today
High -- | Low -- °F
--% Chance of Precip.
Yesterday
High -- | Low -- °F
Precip. -- in
6:27 AM 8:58 PM
Waxing Crescent, 21% visible
Pressure 30.19 in
Visibility 10.0 miles
Clouds Few 8500 ft
Dew Point 42 °F
Humidity 66%
Rainfall 0.00 in
Snow Depth Not available.
UV 1.0 out of 12
Pollen 8.80 out of 12
Air Quality Not available.
Flu Activity Sporadic
METAR KBMG 221153Z 24010KT 10SM FEW085 11/06 A3020 RMK AO2 SLP224 T01110056 10111 20094 51012

More Conditions Fewer Conditions

Pressure 30.19 in
Visibility 10.0 miles
Clouds Few 8500 ft
Dew Point 42 °F
Humidity 66%
Rainfall 0.00 in
Snow Depth Not available.
UV 1.0 out of 12
Pollen 8.80 out of 12
Air Quality Not available.
Flu Activity Sporadic
METAR KBMG 221153Z 24010KT 10SM FEW085 11/06 A3020 RMK AO2 SLP224 T01110056 10111 20094 51012

More Conditions Fewer Conditions

10-Day Weather Forecast

Almanac

Astronomy

May. 22, 2015 Rise Set
Actual Time
Civil Twilight
Nautical Twilight
Astronomical Twilight
Moon
Length of Visible Light
Length of Day
Tomorrow will be .
, % of the Moon is Illuminated

Today's Extremes

State Highs State Lows

Community

WunderPhotos

Upload Photos

1,823,206 photos uploaded!

WunderBlogs® & News

Nearby

Air Quality

  Air Quality AQ Index Pollutant
Not available.

Snow Depth

Station Depth Elevation

Earthquake Activity

City Distance Mag. Time & Date
Minimum magnitude displayed is 2.5.

Coastal Water Temperatures

Place Temperature

Stations

Nearby Weather Stations

Station Location Temp. Windchill Dew Point Humidity Wind Precip. Elev Updated Type